Time;durP1;ratioP1;P1;durP2;ratioP2;P2;SDS_P1;SDS_P2;PMS_P1;PMS_P2;Temp;Humidity;BMP_temperature;BMP_pressure;BME280_temperature;BME280_humidity;BME280_pressure;Samples;Min_cycle;Max_cycle;Signal;HPM_P1;HPM_P2
2022/01/11 00:00:37;;;;;;;234.50;34.00;;;;;;;;;;5055580;28;20060;-81
2022/01/11 00:03:05;;;;;;;452.05;46.78;;;;;;;;;;5072249;28;20544;-81
2022/01/11 00:05:40;;;;;;;154.23;32.15;;;;;;;;;;5072173;28;20094;-81
2022/01/11 00:08:09;;;;;;;211.05;34.97;;;;;;;;;;5055596;28;20083;-81
2022/01/11 00:10:47;;;;;;;187.20;36.10;;;;;;;;;;5114016;28;20051;-81
2022/01/11 00:13:23;;;;;;;271.10;37.22;;;;;;;;;;5096839;28;20496;-81
2022/01/11 00:15:49;;;;;;;223.18;36.30;;;;;;;;;;5096729;28;20051;-80
2022/01/11 00:18:16;;;;;;;267.10;39.55;;;;;;;;;;5096563;28;20052;-80
2022/01/11 00:20:42;;;;;;;207.32;35.65;;;;;;;;;;5114938;28;20388;-80
2022/01/11 00:25:39;;;;;;;312.40;39.30;;;;;;;;;;5115205;28;20468;-80
2022/01/11 00:28:06;;;;;;;301.63;41.55;;;;;;;;;;5114759;28;20039;-81
2022/01/11 00:30:35;;;;;;;226.80;37.03;;;;;;;;;;5096874;28;20048;-80
2022/01/11 00:33:04;;;;;;;252.48;36.25;;;;;;;;;;5096476;28;20161;-80
2022/01/11 00:38:07;;;;;;;228.23;36.90;;;;;;;;;;5114773;28;20101;-80
2022/01/11 00:40:33;;;;;;;343.00;41.15;;;;;;;;;;5096391;28;20121;-80
2022/01/11 00:43:00;;;;;;;201.70;36.08;;;;;;;;;;5114534;28;20043;-80
2022/01/11 00:45:26;;;;;;;239.02;38.95;;;;;;;;;;5096011;28;20460;-80
2022/01/11 00:47:53;;;;;;;277.73;41.47;;;;;;;;;;5114895;28;20440;-80
2022/01/11 00:50:19;;;;;;;204.15;35.28;;;;;;;;;;5114342;28;20173;-81
2022/01/11 00:52:45;;;;;;;320.42;38.88;;;;;;;;;;5096463;28;20473;-81
2022/01/11 00:55:11;;;;;;;254.05;37.90;;;;;;;;;;5096047;28;20074;-80
2022/01/11 00:57:37;;;;;;;466.48;49.65;;;;;;;;;;5114299;28;20042;-80
2022/01/11 01:00:08;;;;;;;314.83;41.45;;;;;;;;;;5096046;28;20065;-80
2022/01/11 01:02:34;;;;;;;324.30;39.35;;;;;;;;;;5114089;28;20503;-80
2022/01/11 01:05:01;;;;;;;185.00;35.60;;;;;;;;;;5114464;28;20397;-80
2022/01/11 01:07:27;;;;;;;254.38;38.45;;;;;;;;;;5114016;28;20050;-80
2022/01/11 01:10:06;;;;;;;397.63;44.00;;;;;;;;;;5095788;28;20624;-81
2022/01/11 01:12:33;;;;;;;227.38;38.47;;;;;;;;;;5113703;28;20476;-81
2022/01/11 01:14:59;;;;;;;304.35;42.42;;;;;;;;;;5078765;28;20573;-80
2022/01/11 01:17:26;;;;;;;351.65;45.58;;;;;;;;;;5113880;28;20048;-81
2022/01/11 01:19:53;;;;;;;282.55;38.75;;;;;;;;;;5113693;28;20123;-81
2022/01/11 01:22:19;;;;;;;279.05;38.50;;;;;;;;;;5113910;28;20043;-81
2022/01/11 01:24:46;;;;;;;370.48;42.50;;;;;;;;;;5095549;28;20048;-81
2022/01/11 01:27:12;;;;;;;301.15;39.72;;;;;;;;;;5113481;28;20507;-81
2022/01/11 01:29:40;;;;;;;557.42;57.72;;;;;;;;;;5095518;28;20047;-80
2022/01/11 01:32:07;;;;;;;266.35;39.67;;;;;;;;;;5113850;28;20048;-81
2022/01/11 01:34:33;;;;;;;197.73;36.55;;;;;;;;;;5113628;28;20431;-80
2022/01/11 01:37:00;;;;;;;314.50;41.72;;;;;;;;;;5113594;28;20378;-81
2022/01/11 01:39:26;;;;;;;245.68;38.03;;;;;;;;;;5095207;28;20043;-80
2022/01/11 01:41:52;;;;;;;222.15;38.70;;;;;;;;;;5095515;28;20485;-80
2022/01/11 01:44:19;;;;;;;236.82;38.70;;;;;;;;;;5095488;28;20040;-81
2022/01/11 01:46:45;;;;;;;287.52;40.38;;;;;;;;;;5095077;28;20172;-81
2022/01/11 01:49:17;;;;;;;262.17;33.42;;;;;;;;;;5095391;28;20035;-79
2022/01/11 01:51:44;;;;;;;333.23;36.75;;;;;;;;;;5113142;28;20043;-80
2022/01/11 01:54:10;;;;;;;186.85;33.63;;;;;;;;;;5094963;28;20085;-80
2022/01/11 01:56:36;;;;;;;282.88;37.42;;;;;;;;;;5094913;28;20422;-81
2022/01/11 01:59:03;;;;;;;210.25;34.55;;;;;;;;;;5113382;28;20046;-80
2022/01/11 02:01:32;;;;;;;305.63;38.60;;;;;;;;;;5095034;28;20051;-81
2022/01/11 02:03:58;;;;;;;197.10;31.95;;;;;;;;;;5112878;28;20373;-81
2022/01/11 02:06:24;;;;;;;217.35;35.72;;;;;;;;;;5094934;28;20058;-81
2022/01/11 02:08:51;;;;;;;243.05;35.05;;;;;;;;;;5112917;28;20035;-82
2022/01/11 02:11:21;;;;;;;308.70;40.25;;;;;;;;;;5078261;28;20035;-81
2022/01/11 02:13:47;;;;;;;199.52;34.30;;;;;;;;;;5113142;28;20100;-80
2022/01/11 02:16:13;;;;;;;217.73;37.22;;;;;;;;;;5112949;28;20427;-82
2022/01/11 02:18:45;;;;;;;285.02;36.20;;;;;;;;;;5112968;28;20453;-81
2022/01/11 02:21:11;;;;;;;178.70;32.70;;;;;;;;;;5112366;28;20040;-80
2022/01/11 02:23:37;;;;;;;314.80;39.33;;;;;;;;;;5112690;28;20096;-80
2022/01/11 02:26:05;;;;;;;211.57;35.20;;;;;;;;;;5094549;28;20086;-80
2022/01/11 02:28:31;;;;;;;193.30;33.10;;;;;;;;;;5112896;28;20545;-80
2022/01/11 02:30:58;;;;;;;233.57;34.38;;;;;;;;;;5112883;28;20122;-81
2022/01/11 02:33:33;;;;;;;207.55;32.00;;;;;;;;;;5094836;28;20040;-82
2022/01/11 02:36:05;;;;;;;209.43;34.20;;;;;;;;;;5112957;28;20122;-81
2022/01/11 02:38:31;;;;;;;242.43;32.90;;;;;;;;;;5094563;28;20044;-81
2022/01/11 02:40:58;;;;;;;135.38;29.67;;;;;;;;;;5094697;28;20044;-80
2022/01/11 02:43:24;;;;;;;168.10;31.20;;;;;;;;;;5094744;28;20058;-80
2022/01/11 02:45:50;;;;;;;159.15;31.50;;;;;;;;;;5094646;28;20491;-81
2022/01/11 02:48:17;;;;;;;148.00;30.75;;;;;;;;;;5112853;28;20043;-80
2022/01/11 02:50:45;;;;;;;229.27;34.13;;;;;;;;;;5112518;28;20071;-81
2022/01/11 02:53:11;;;;;;;170.05;30.92;;;;;;;;;;5094253;28;20365;-80
2022/01/11 02:55:39;;;;;;;214.77;33.40;;;;;;;;;;5112800;28;20062;-80
2022/01/11 02:58:06;;;;;;;218.90;31.77;;;;;;;;;;5112871;28;20083;-79
2022/01/11 03:00:32;;;;;;;227.30;32.60;;;;;;;;;;5112682;28;20089;-80
2022/01/11 03:03:08;;;;;;;140.70;30.50;;;;;;;;;;5112519;28;20036;-80
2022/01/11 03:05:34;;;;;;;222.07;32.13;;;;;;;;;;5112820;28;20071;-81
2022/01/11 03:08:00;;;;;;;214.98;30.67;;;;;;;;;;5077500;28;20044;-81
2022/01/11 03:12:52;;;;;;;239.20;29.45;;;;;;;;;;5112548;28;20073;-80
2022/01/11 03:15:18;;;;;;;193.77;28.27;;;;;;;;;;5112412;28;20043;-81
2022/01/11 03:17:45;;;;;;;233.32;32.30;;;;;;;;;;5112137;28;20497;-80
2022/01/11 03:20:12;;;;;;;252.82;31.02;;;;;;;;;;5112339;28;20086;-81
2022/01/11 03:22:38;;;;;;;125.10;26.70;;;;;;;;;;5112556;28;20062;-81
2022/01/11 03:25:05;;;;;;;212.93;28.92;;;;;;;;;;5112308;28;20043;-81
2022/01/11 03:27:31;;;;;;;257.77;29.67;;;;;;;;;;5112052;28;20081;-80
2022/01/11 03:29:57;;;;;;;222.18;28.80;;;;;;;;;;5094186;28;20140;-80
2022/01/11 03:32:23;;;;;;;234.93;31.42;;;;;;;;;;5113667;28;20052;-81
2022/01/11 03:34:49;;;;;;;231.10;29.10;;;;;;;;;;5098120;28;20043;-81
2022/01/11 03:37:17;;;;;;;156.65;26.50;;;;;;;;;;5116000;28;20051;-81
2022/01/11 03:39:44;;;;;;;194.02;28.27;;;;;;;;;;5116093;28;20051;-81
2022/01/11 03:42:10;;;;;;;221.30;27.55;;;;;;;;;;5115823;28;20045;-81
2022/01/11 03:44:36;;;;;;;195.10;26.67;;;;;;;;;;5115805;28;20424;-80
2022/01/11 03:47:02;;;;;;;193.10;30.13;;;;;;;;;;5080426;28;20104;-81
2022/01/11 03:49:28;;;;;;;207.68;30.52;;;;;;;;;;5115939;28;20075;-81
2022/01/11 03:51:55;;;;;;;198.55;30.40;;;;;;;;;;5115834;28;20074;-81
2022/01/11 03:54:28;;;;;;;211.77;30.05;;;;;;;;;;5115597;28;20130;-80
2022/01/11 03:56:54;;;;;;;239.52;30.05;;;;;;;;;;5115507;28;20500;-80
2022/01/11 03:59:20;;;;;;;164.93;26.85;;;;;;;;;;5097121;28;20032;-81
2022/01/11 04:01:47;;;;;;;168.90;28.60;;;;;;;;;;5097123;28;20044;-81
2022/01/11 04:04:14;;;;;;;143.15;27.92;;;;;;;;;;5097429;28;20054;-82
2022/01/11 04:06:41;;;;;;;239.50;35.17;;;;;;;;;;5115508;28;20043;-80
2022/01/11 04:09:07;;;;;;;146.85;28.73;;;;;;;;;;5115249;28;20043;-81
2022/01/11 04:11:34;;;;;;;99.20;26.60;;;;;;;;;;5115268;28;20043;-79
2022/01/11 04:14:00;;;;;;;159.82;28.65;;;;;;;;;;5096741;28;20050;-80
2022/01/11 04:16:26;;;;;;;173.75;30.38;;;;;;;;;;5115197;28;20063;-80
2022/01/11 04:18:52;;;;;;;93.45;27.90;;;;;;;;;;5097052;28;20434;-80
2022/01/11 04:21:18;;;;;;;180.45;31.92;;;;;;;;;;5115133;28;20117;-81
2022/01/11 04:23:44;;;;;;;113.05;29.05;;;;;;;;;;5097072;28;20093;-81
2022/01/11 04:26:10;;;;;;;133.70;30.15;;;;;;;;;;5114711;28;20397;-81
2022/01/11 04:28:37;;;;;;;98.47;27.90;;;;;;;;;;5114787;28;20043;-80
2022/01/11 04:31:03;;;;;;;126.65;29.38;;;;;;;;;;5114916;28;20381;-81
2022/01/11 04:33:30;;;;;;;123.80;30.20;;;;;;;;;;5114805;28;20046;-81
2022/01/11 04:35:57;;;;;;;149.55;33.35;;;;;;;;;;5096426;28;20048;-80
2022/01/11 04:38:25;;;;;;;93.20;28.58;;;;;;;;;;5114671;28;20585;-81
2022/01/11 04:40:51;;;;;;;134.65;30.15;;;;;;;;;;5096630;28;20035;-81
2022/01/11 04:43:18;;;;;;;101.78;30.15;;;;;;;;;;5078826;28;20055;-80
2022/01/11 04:45:44;;;;;;;87.20;31.48;;;;;;;;;;5114668;28;20039;-80
2022/01/11 04:48:10;;;;;;;127.32;34.25;;;;;;;;;;5114558;28;20464;-79
2022/01/11 04:50:37;;;;;;;164.20;35.17;;;;;;;;;;5096381;28;20044;-81
2022/01/11 04:53:03;;;;;;;116.88;33.50;;;;;;;;;;5079508;28;20039;-81
2022/01/11 04:55:31;;;;;;;134.43;35.45;;;;;;;;;;5114335;28;20039;-80
2022/01/11 04:57:58;;;;;;;170.07;37.63;;;;;;;;;;5096110;28;20048;-80
2022/01/11 05:00:24;;;;;;;97.40;32.63;;;;;;;;;;5096170;28;20042;-81
2022/01/11 05:02:51;;;;;;;113.35;33.47;;;;;;;;;;5114074;28;20044;-80
2022/01/11 05:05:17;;;;;;;165.07;35.47;;;;;;;;;;5114139;28;20047;-80
2022/01/11 05:07:44;;;;;;;224.73;38.83;;;;;;;;;;5114004;28;20506;-81
2022/01/11 05:10:11;;;;;;;173.32;38.47;;;;;;;;;;5114037;28;20088;-81
2022/01/11 05:12:38;;;;;;;131.70;34.03;;;;;;;;;;5113995;28;20127;-81
2022/01/11 05:15:06;;;;;;;177.10;39.65;;;;;;;;;;5114193;28;20059;-80
2022/01/11 05:17:32;;;;;;;116.53;37.15;;;;;;;;;;5114054;28;20058;-81
2022/01/11 05:19:58;;;;;;;172.38;38.10;;;;;;;;;;5114050;28;20400;-81
2022/01/11 05:22:24;;;;;;;159.70;35.63;;;;;;;;;;5113891;28;20039;-81
2022/01/11 05:24:50;;;;;;;171.40;37.17;;;;;;;;;;5062283;28;20050;-81
2022/01/11 05:27:16;;;;;;;164.45;38.35;;;;;;;;;;5113670;28;20423;-80
2022/01/11 05:29:42;;;;;;;187.82;42.38;;;;;;;;;;5113618;28;20035;-82
2022/01/11 05:32:08;;;;;;;132.82;39.60;;;;;;;;;;5113757;28;20069;-81
2022/01/11 05:34:35;;;;;;;164.32;40.20;;;;;;;;;;5113632;28;20047;-81
2022/01/11 05:37:01;;;;;;;187.68;41.60;;;;;;;;;;5113516;28;20101;-81
2022/01/11 05:39:27;;;;;;;140.13;37.03;;;;;;;;;;5095282;28;20036;-80
2022/01/11 05:41:53;;;;;;;161.45;38.88;;;;;;;;;;5113452;28;20071;-79
2022/01/11 05:44:19;;;;;;;189.63;42.40;;;;;;;;;;5113847;28;20493;-81
2022/01/11 05:46:45;;;;;;;149.07;41.22;;;;;;;;;;5095085;28;20039;-81
2022/01/11 05:49:11;;;;;;;173.85;40.55;;;;;;;;;;5113958;28;20050;-80
2022/01/11 05:51:37;;;;;;;150.77;40.08;;;;;;;;;;5113486;28;20240;-81
2022/01/11 05:54:03;;;;;;;183.57;42.38;;;;;;;;;;5112771;28;20438;-81
2022/01/11 05:56:29;;;;;;;189.80;43.03;;;;;;;;;;5113135;28;20575;-80
2022/01/11 05:58:56;;;;;;;191.10;43.33;;;;;;;;;;5095202;28;20382;-80
2022/01/11 06:01:23;;;;;;;122.55;39.00;;;;;;;;;;5113321;28;20040;-80
2022/01/11 06:03:49;;;;;;;175.77;44.00;;;;;;;;;;5113261;28;20043;-80
2022/01/11 06:06:15;;;;;;;177.90;45.33;;;;;;;;;;5113005;28;20040;-81
2022/01/11 06:08:42;;;;;;;139.10;40.95;;;;;;;;;;5112929;28;20046;-81
2022/01/11 06:11:08;;;;;;;112.80;39.28;;;;;;;;;;5133785;27;20035;-80
2022/01/11 06:13:34;;;;;;;186.48;44.60;;;;;;;;;;5135229;27;20091;-81
2022/01/11 06:16:00;;;;;;;171.35;45.85;;;;;;;;;;5153998;27;20195;-81
2022/01/11 06:18:26;;;;;;;225.15;47.92;;;;;;;;;;5153984;27;20124;-81
2022/01/11 06:20:52;;;;;;;277.58;50.90;;;;;;;;;;5137818;27;20171;-81
2022/01/11 06:23:18;;;;;;;211.20;46.28;;;;;;;;;;5153203;27;20045;-80
2022/01/11 06:25:45;;;;;;;179.23;43.15;;;;;;;;;;5134809;27;20042;-80
2022/01/11 06:28:11;;;;;;;206.50;46.83;;;;;;;;;;5153338;27;20038;-80
2022/01/11 06:30:38;;;;;;;191.52;46.60;;;;;;;;;;5135564;27;20053;-82
2022/01/11 06:33:04;;;;;;;188.63;43.90;;;;;;;;;;5136905;27;20100;-82
2022/01/11 06:35:30;;;;;;;206.25;46.42;;;;;;;;;;5133467;28;20388;-80
2022/01/11 06:37:56;;;;;;;232.98;47.15;;;;;;;;;;5148127;27;20118;-80
2022/01/11 06:40:23;;;;;;;206.82;46.67;;;;;;;;;;5154114;27;20039;-81
2022/01/11 06:42:53;;;;;;;192.55;44.90;;;;;;;;;;5153162;27;20102;-82
2022/01/11 06:45:21;;;;;;;212.27;47.58;;;;;;;;;;5152195;27;20077;-81
2022/01/11 06:47:47;;;;;;;184.38;47.10;;;;;;;;;;5153101;27;20053;-81
2022/01/11 06:50:13;;;;;;;241.98;50.25;;;;;;;;;;5153413;27;20126;-81
2022/01/11 06:52:39;;;;;;;191.82;49.33;;;;;;;;;;5134726;27;20045;-81
2022/01/11 06:55:07;;;;;;;220.82;49.47;;;;;;;;;;5135051;27;20070;-81
2022/01/11 06:57:33;;;;;;;176.48;48.55;;;;;;;;;;5118263;27;20118;-81
2022/01/11 06:59:59;;;;;;;173.50;46.65;;;;;;;;;;5145232;27;20050;-81
2022/01/11 07:02:25;;;;;;;144.15;46.42;;;;;;;;;;5113093;28;20392;-80
2022/01/11 07:04:51;;;;;;;126.03;43.65;;;;;;;;;;5137618;27;20042;-81
2022/01/11 07:07:17;;;;;;;142.38;44.97;;;;;;;;;;5156654;27;20082;-81
2022/01/11 07:09:43;;;;;;;138.40;45.70;;;;;;;;;;5134614;27;20114;-81
2022/01/11 07:12:10;;;;;;;124.18;45.42;;;;;;;;;;5137054;27;20046;-81
2022/01/11 07:14:36;;;;;;;129.18;45.55;;;;;;;;;;5116141;27;20137;-82
2022/01/11 07:17:02;;;;;;;112.95;43.85;;;;;;;;;;5108208;27;20126;-81
2022/01/11 07:19:29;;;;;;;123.00;44.90;;;;;;;;;;5119110;27;20051;-80
2022/01/11 07:21:59;;;;;;;110.63;40.42;;;;;;;;;;5136380;27;20051;-81
2022/01/11 07:24:25;;;;;;;122.00;43.60;;;;;;;;;;5116461;27;20043;-81
2022/01/11 07:26:52;;;;;;;128.30;45.20;;;;;;;;;;5115949;28;20039;-81
2022/01/11 07:29:18;;;;;;;110.05;39.85;;;;;;;;;;5129546;27;20030;-81
2022/01/11 07:31:44;;;;;;;123.35;43.58;;;;;;;;;;5127462;27;20049;-80
2022/01/11 07:34:10;;;;;;;114.57;41.85;;;;;;;;;;5118199;27;20088;-81
2022/01/11 07:36:37;;;;;;;101.07;40.15;;;;;;;;;;5111922;28;20491;-80
2022/01/11 07:39:04;;;;;;;111.13;40.30;;;;;;;;;;5097840;28;20039;-81
2022/01/11 07:41:30;;;;;;;101.97;40.10;;;;;;;;;;5127416;27;20038;-82
2022/01/11 07:43:56;;;;;;;99.75;39.50;;;;;;;;;;5137188;27;20039;-80
2022/01/11 07:46:23;;;;;;;89.13;38.25;;;;;;;;;;5156850;27;20436;-81
2022/01/11 07:48:50;;;;;;;93.95;39.42;;;;;;;;;;5138051;27;20057;-81
2022/01/11 07:51:16;;;;;;;94.63;39.33;;;;;;;;;;5115813;28;20049;-81
2022/01/11 07:53:42;;;;;;;87.30;38.95;;;;;;;;;;5138458;27;20039;-81
2022/01/11 07:56:09;;;;;;;79.55;37.90;;;;;;;;;;5137841;27;20070;-81
2022/01/11 07:58:35;;;;;;;85.78;37.97;;;;;;;;;;5120687;27;20447;-80
2022/01/11 08:01:01;;;;;;;91.50;38.40;;;;;;;;;;5137960;27;20046;-80
2022/01/11 08:03:27;;;;;;;76.60;36.67;;;;;;;;;;5156533;27;20043;-81
2022/01/11 08:05:53;;;;;;;83.35;37.83;;;;;;;;;;5156210;27;20088;-80
2022/01/11 08:08:20;;;;;;;79.18;37.13;;;;;;;;;;5156467;27;20047;-81
2022/01/11 08:10:46;;;;;;;82.10;37.72;;;;;;;;;;5138277;27;20082;-81
2022/01/11 08:13:12;;;;;;;87.07;37.60;;;;;;;;;;5156506;27;20467;-81
2022/01/11 08:15:38;;;;;;;83.57;37.83;;;;;;;;;;5156018;27;20081;-79
2022/01/11 08:18:05;;;;;;;73.45;36.70;;;;;;;;;;5155462;27;20615;-80
2022/01/11 08:20:32;;;;;;;80.88;35.53;;;;;;;;;;5138210;27;20047;-80
2022/01/11 08:22:58;;;;;;;74.82;36.40;;;;;;;;;;5137797;27;20039;-80
2022/01/11 08:25:24;;;;;;;70.25;35.63;;;;;;;;;;5137548;27;20130;-80
2022/01/11 08:27:51;;;;;;;63.85;34.25;;;;;;;;;;5156157;27;20038;-81
2022/01/11 08:30:18;;;;;;;65.55;34.15;;;;;;;;;;5155845;27;20074;-80
2022/01/11 08:32:44;;;;;;;63.83;32.92;;;;;;;;;;5137729;27;20086;-80
2022/01/11 08:35:11;;;;;;;63.50;32.70;;;;;;;;;;5156082;27;20094;-81
2022/01/11 08:37:37;;;;;;;61.03;32.95;;;;;;;;;;5155761;27;20550;-80
2022/01/11 08:40:05;;;;;;;63.90;33.10;;;;;;;;;;5156009;27;20043;-80
2022/01/11 08:42:31;;;;;;;62.45;33.88;;;;;;;;;;5155652;27;20070;-79
2022/01/11 08:45:00;;;;;;;65.55;32.67;;;;;;;;;;5137089;27;20049;-81
2022/01/11 08:47:30;;;;;;;62.33;33.03;;;;;;;;;;5136997;27;20042;-81
2022/01/11 08:50:02;;;;;;;57.65;31.67;;;;;;;;;;5155669;27;20360;-80
2022/01/11 08:52:28;;;;;;;60.05;31.90;;;;;;;;;;5155592;27;20050;-81
2022/01/11 08:54:55;;;;;;;62.38;31.40;;;;;;;;;;5137178;27;20498;-81
2022/01/11 08:57:21;;;;;;;63.83;32.88;;;;;;;;;;5155533;27;20082;-81
2022/01/11 08:59:48;;;;;;;53.03;30.63;;;;;;;;;;5155617;27;20050;-80
2022/01/11 09:02:14;;;;;;;56.75;31.13;;;;;;;;;;5120118;27;20077;-81
2022/01/11 09:04:41;;;;;;;55.42;31.13;;;;;;;;;;5155462;27;20043;-81
2022/01/11 09:07:07;;;;;;;53.95;31.05;;;;;;;;;;5155262;27;20038;-81
2022/01/11 09:09:33;;;;;;;59.63;31.48;;;;;;;;;;5136825;27;20046;-82
2022/01/11 09:12:03;;;;;;;56.53;30.60;;;;;;;;;;5155178;27;20042;-81
2022/01/11 09:14:29;;;;;;;52.03;29.42;;;;;;;;;;5155117;27;20105;-81
2022/01/11 09:16:56;;;;;;;53.33;29.35;;;;;;;;;;5154863;27;20129;-82
2022/01/11 09:19:23;;;;;;;59.70;30.80;;;;;;;;;;5154925;27;20046;-81
2022/01/11 09:21:49;;;;;;;55.70;30.08;;;;;;;;;;5155056;27;20046;-81
2022/01/11 09:24:19;;;;;;;58.22;30.30;;;;;;;;;;5155095;27;20040;-82
2022/01/11 09:26:49;;;;;;;52.47;29.58;;;;;;;;;;5154768;27;20137;-81
2022/01/11 09:29:16;;;;;;;50.25;29.73;;;;;;;;;;5155138;27;20079;-81
2022/01/11 09:31:42;;;;;;;53.53;30.52;;;;;;;;;;5154940;27;20479;-82
2022/01/11 09:34:09;;;;;;;48.38;28.33;;;;;;;;;;5154942;27;20035;-82
2022/01/11 09:36:35;;;;;;;46.45;28.67;;;;;;;;;;5119002;27;20045;-81
2022/01/11 09:39:01;;;;;;;51.60;29.23;;;;;;;;;;5154694;27;20034;-82
2022/01/11 09:41:28;;;;;;;49.53;28.73;;;;;;;;;;5154535;27;20045;-81
2022/01/11 09:43:55;;;;;;;48.65;28.35;;;;;;;;;;5136554;27;20043;-81
2022/01/11 09:46:23;;;;;;;45.20;28.45;;;;;;;;;;5136348;27;20039;-81
2022/01/11 09:48:50;;;;;;;46.35;26.73;;;;;;;;;;5119518;27;20038;-81
2022/01/11 09:51:16;;;;;;;45.92;27.73;;;;;;;;;;5154845;27;20060;-82
2022/01/11 09:53:43;;;;;;;48.08;28.35;;;;;;;;;;5136054;27;20039;-80
2022/01/11 09:56:10;;;;;;;49.22;27.27;;;;;;;;;;5154736;27;20053;-81
2022/01/11 09:58:37;;;;;;;42.97;25.83;;;;;;;;;;5118965;27;20121;-81
2022/01/11 10:01:04;;;;;;;46.72;27.25;;;;;;;;;;5154587;27;20396;-82
2022/01/11 10:03:31;;;;;;;46.45;27.05;;;;;;;;;;5154227;27;20046;-82
2022/01/11 10:05:57;;;;;;;41.20;25.50;;;;;;;;;;5135632;27;20077;-82
2022/01/11 10:08:25;;;;;;;43.20;26.20;;;;;;;;;;5136027;27;20129;-81
2022/01/11 10:10:52;;;;;;;44.78;26.13;;;;;;;;;;5154319;27;20145;-81
2022/01/11 10:13:38;;;;;;;41.30;24.63;;;;;;;;;;5154280;27;20471;-81
2022/01/11 10:16:23;;;;;;;39.33;24.25;;;;;;;;;;5154107;27;20495;-82
2022/01/11 10:18:50;;;;;;;35.47;23.83;;;;;;;;;;5154158;27;20085;-81
2022/01/11 10:21:37;;;;;;;39.17;23.08;;;;;;;;;;5135826;27;20038;-81
2022/01/11 10:24:24;;;;;;;35.20;22.35;;;;;;;;;;5135707;27;20139;-81
2022/01/11 10:26:50;;;;;;;34.45;21.58;;;;;;;;;;5136341;27;20104;-80
2022/01/11 10:29:23;;;;;;;38.00;23.23;;;;;;;;;;5135658;27;20047;-82
2022/01/11 10:31:50;;;;;;;37.10;22.60;;;;;;;;;;5154331;27;20046;-81
2022/01/11 10:34:25;;;;;;;40.15;23.27;;;;;;;;;;5154102;27;20065;-80
2022/01/11 10:36:52;;;;;;;39.60;23.70;;;;;;;;;;5153980;27;20070;-81
2022/01/11 10:39:25;;;;;;;36.08;22.95;;;;;;;;;;5154012;27;20034;-81
2022/01/11 10:41:52;;;;;;;36.47;21.75;;;;;;;;;;5138020;27;20038;-81
2022/01/11 10:44:37;;;;;;;35.45;21.30;;;;;;;;;;5139954;27;20047;-81
2022/01/11 10:47:04;;;;;;;33.70;20.95;;;;;;;;;;5139577;27;20043;-81
2022/01/11 10:49:35;;;;;;;31.90;20.27;;;;;;;;;;5158164;27;20041;-82
2022/01/11 10:52:20;;;;;;;32.95;21.13;;;;;;;;;;5139449;27;20383;-82
2022/01/11 10:54:47;;;;;;;35.47;20.70;;;;;;;;;;5158166;27;20095;-81
2022/01/11 10:57:16;;;;;;;39.15;21.50;;;;;;;;;;5158124;27;20078;-82
2022/01/11 10:59:42;;;;;;;36.28;20.90;;;;;;;;;;5139196;27;20130;-82
2022/01/11 11:02:12;;;;;;;32.65;19.80;;;;;;;;;;5157736;27;20547;-81
2022/01/11 11:04:38;;;;;;;33.13;19.42;;;;;;;;;;5157742;27;20091;-82
2022/01/11 11:07:12;;;;;;;33.88;19.42;;;;;;;;;;5139435;27;20073;-81
2022/01/11 11:09:48;;;;;;;29.75;18.70;;;;;;;;;;5157513;27;20082;-81
2022/01/11 11:12:18;;;;;;;29.40;18.58;;;;;;;;;;5157467;27;20486;-81
2022/01/11 11:14:55;;;;;;;31.42;18.95;;;;;;;;;;5157271;27;20565;-81
2022/01/11 11:17:31;;;;;;;32.38;18.77;;;;;;;;;;5138647;27;20038;-81
2022/01/11 11:20:02;;;;;;;29.73;18.88;;;;;;;;;;5139117;27;20125;-81
2022/01/11 11:22:29;;;;;;;34.03;18.73;;;;;;;;;;5157548;27;20076;-80
2022/01/11 11:24:55;;;;;;;34.67;19.30;;;;;;;;;;5157227;27;20319;-81
2022/01/11 11:27:23;;;;;;;31.65;17.67;;;;;;;;;;5157119;27;20042;-81
2022/01/11 11:29:49;;;;;;;31.40;18.80;;;;;;;;;;5138888;27;20119;-79
2022/01/11 11:32:20;;;;;;;34.80;19.23;;;;;;;;;;5157311;27;20042;-82
2022/01/11 11:34:49;;;;;;;32.55;18.33;;;;;;;;;;5138810;27;20086;-80
2022/01/11 11:37:19;;;;;;;32.45;18.15;;;;;;;;;;5138978;27;20121;-81
2022/01/11 11:39:45;;;;;;;29.67;18.75;;;;;;;;;;5156942;27;20468;-80
2022/01/11 11:42:15;;;;;;;30.33;17.35;;;;;;;;;;5157044;27;20039;-81
2022/01/11 11:44:43;;;;;;;34.65;19.40;;;;;;;;;;5156858;27;20039;-81
2022/01/11 11:47:10;;;;;;;29.73;17.98;;;;;;;;;;5156982;27;20126;-81
2022/01/11 11:49:50;;;;;;;33.00;18.60;;;;;;;;;;5156950;27;20043;-80
2022/01/11 11:52:29;;;;;;;31.80;18.23;;;;;;;;;;5155723;27;20483;-81
2022/01/11 11:54:59;;;;;;;31.65;17.27;;;;;;;;;;5157039;27;20126;-81
2022/01/11 11:57:27;;;;;;;28.23;17.42;;;;;;;;;;5156828;27;20043;-80
2022/01/11 11:59:55;;;;;;;30.30;17.95;;;;;;;;;;5156679;27;20057;-80
2022/01/11 12:02:50;;;;;;;29.15;17.23;;;;;;;;;;5156702;27;20065;-81
2022/01/11 12:05:33;;;;;;;32.35;18.13;;;;;;;;;;5134745;27;20047;-80
2022/01/11 12:08:19;;;;;;;29.63;17.70;;;;;;;;;;5138224;27;20087;-80
2022/01/11 12:10:50;;;;;;;28.73;16.10;;;;;;;;;;5138113;27;20050;-80
2022/01/11 12:13:35;;;;;;;30.23;17.30;;;;;;;;;;5156389;27;20038;-81
2022/01/11 12:16:01;;;;;;;28.55;16.17;;;;;;;;;;5120814;27;20050;-80
2022/01/11 12:18:42;;;;;;;32.33;16.90;;;;;;;;;;5156507;27;20054;-81
2022/01/11 12:21:08;;;;;;;26.92;16.25;;;;;;;;;;5156381;27;20038;-80
2022/01/11 12:23:34;;;;;;;30.60;16.90;;;;;;;;;;5156180;27;20563;-81
2022/01/11 12:26:13;;;;;;;28.88;16.30;;;;;;;;;;5137321;27;20387;-80
2022/01/11 12:28:40;;;;;;;28.55;16.63;;;;;;;;;;5137736;27;20047;-80
2022/01/11 12:31:25;;;;;;;27.60;16.48;;;;;;;;;;5156200;27;20047;-81
2022/01/11 12:33:51;;;;;;;30.85;17.67;;;;;;;;;;5137897;27;20099;-81
2022/01/11 12:36:17;;;;;;;28.00;16.45;;;;;;;;;;5137516;27;20042;-80
2022/01/11 12:39:04;;;;;;;29.02;17.20;;;;;;;;;;5156207;27;20045;-81
2022/01/11 12:41:31;;;;;;;28.75;17.10;;;;;;;;;;5137628;27;20527;-80
2022/01/11 12:44:21;;;;;;;28.30;16.70;;;;;;;;;;5120273;27;20495;-81
2022/01/11 12:46:54;;;;;;;29.00;17.65;;;;;;;;;;5155593;27;20436;-80
2022/01/11 12:49:21;;;;;;;29.15;17.10;;;;;;;;;;5155779;27;20522;-81
2022/01/11 12:51:51;;;;;;;30.17;17.20;;;;;;;;;;5155788;27;20118;-81
2022/01/11 12:54:22;;;;;;;28.67;16.98;;;;;;;;;;5155813;27;20424;-80
2022/01/11 12:57:15;;;;;;;28.02;16.70;;;;;;;;;;5120271;27;20379;-80
2022/01/11 12:59:43;;;;;;;30.10;16.50;;;;;;;;;;5151284;27;20119;-81
2022/01/11 13:02:11;;;;;;;29.05;16.95;;;;;;;;;;5155544;27;20078;-80
2022/01/11 13:04:38;;;;;;;29.65;18.10;;;;;;;;;;5136525;27;20050;-80
2022/01/11 13:07:15;;;;;;;26.25;15.80;;;;;;;;;;5136926;27;20522;-80
2022/01/11 13:09:44;;;;;;;31.42;17.23;;;;;;;;;;5155329;27;20043;-80
2022/01/11 13:12:11;;;;;;;32.38;16.65;;;;;;;;;;5155537;27;20379;-81
2022/01/11 13:14:40;;;;;;;29.67;17.40;;;;;;;;;;5155427;27;20102;-80
2022/01/11 13:17:06;;;;;;;29.35;16.23;;;;;;;;;;5136523;27;20086;-80
2022/01/11 13:19:40;;;;;;;29.52;16.48;;;;;;;;;;5136891;27;20042;-81
2022/01/11 13:22:07;;;;;;;30.77;16.35;;;;;;;;;;5119575;27;20042;-81
2022/01/11 13:24:36;;;;;;;31.33;16.42;;;;;;;;;;5155194;27;20034;-80
2022/01/11 13:27:11;;;;;;;33.47;17.05;;;;;;;;;;5155085;27;20178;-80
2022/01/11 13:29:37;;;;;;;28.35;15.90;;;;;;;;;;5155098;27;20178;-80
2022/01/11 13:32:04;;;;;;;26.90;15.55;;;;;;;;;;5154969;27;20083;-80
2022/01/11 13:34:32;;;;;;;28.95;15.73;;;;;;;;;;5136272;27;20042;-80
2022/01/11 13:36:59;;;;;;;30.02;16.20;;;;;;;;;;5136574;27;20034;-81
2022/01/11 13:39:34;;;;;;;30.65;16.63;;;;;;;;;;5136028;27;20046;-81
2022/01/11 13:42:02;;;;;;;43.28;24.27;;;;;;;;;;5136698;27;20047;-81
2022/01/11 13:44:30;;;;;;;39.22;22.10;;;;;;;;;;5154601;27;20042;-81
2022/01/11 13:47:04;;;;;;;33.88;21.05;;;;;;;;;;5136150;27;20073;-81
2022/01/11 13:49:35;;;;;;;41.17;23.23;;;;;;;;;;5136523;27;20039;-81
2022/01/11 13:52:03;;;;;;;38.35;21.73;;;;;;;;;;5136510;27;20110;-81
2022/01/11 13:54:34;;;;;;;38.22;23.02;;;;;;;;;;5154648;27;20039;-81
2022/01/11 13:57:01;;;;;;;42.47;23.15;;;;;;;;;;5154573;27;20072;-81
2022/01/11 13:59:29;;;;;;;36.42;20.23;;;;;;;;;;5154528;27;20082;-81
2022/01/11 14:02:07;;;;;;;30.20;17.85;;;;;;;;;;5154514;27;20089;-81
2022/01/11 14:04:38;;;;;;;40.97;26.02;;;;;;;;;;5119073;27;20043;-81
2022/01/11 14:07:11;;;;;;;46.47;32.15;;;;;;;;;;5135490;27;20050;-81
2022/01/11 14:09:47;;;;;;;37.22;25.15;;;;;;;;;;5136101;27;20065;-82
2022/01/11 14:12:22;;;;;;;31.35;18.00;;;;;;;;;;5135788;27;20475;-81
2022/01/11 14:14:52;;;;;;;32.15;19.25;;;;;;;;;;5154180;27;20487;-81
2022/01/11 14:17:19;;;;;;;35.00;18.50;;;;;;;;;;5153250;27;20103;-81
2022/01/11 14:19:49;;;;;;;33.58;16.75;;;;;;;;;;5135660;27;20411;-78
2022/01/11 14:22:16;;;;;;;33.78;16.67;;;;;;;;;;5154087;27;20130;-81
2022/01/11 14:24:58;;;;;;;30.92;17.63;;;;;;;;;;5136310;27;20053;-80